aviador You're here:

KDLF Decoded Metar

DEL RIO in TX, USA
Report Time2018-01-22 11:58:00
UTC Time2018-01-22 12:07:27
Flight Rules vfr VFR
Wind340° at 06 kt
W.Decomp.*RWY 31: 5.5 kt HW 2.3 kt RCW
W.Rank340° ranks 12
Current wind is below 340° avg. (9.3)
Visibility9999 m
Phenomena:N/A
Clouds:N/A
Expected CloudBase > 4,800 ft AGL from Temp-Dew spread
CeilingNone
Temp05°C (ISA -8)
Dew Point-7°C (42% RH)
AAT0.0°C
QNH1018 hPa
Density Alt23 ft
Elevation1,083 ft
Report Wrong Elevation
Raw Report
KDLF 221158Z 34006KT 10SM CLR 05/M07 A3006 RMK AO2A SLP178
T00461069 10104 20012 52018=

Extra information for KDLF:More info

Metar Taf Metar & Taf Last 4 Metars F.Rules Stats Wind Profile Meteogram Temp Stats Airport Information Weather charts Add Link Nearby VenuesMetar ALERT Operation Metar Decoded Social comments

AIRNAV info for KDLF